createdAt,value
2022-11-05T00:00:38.759Z,71.25
2022-11-05T00:01:59.714Z,71.14
2022-11-05T00:03:20.574Z,71.62
2022-11-05T00:04:40.923Z,71.67
2022-11-05T00:06:02.082Z,70.88
2022-11-05T00:07:26.606Z,70.79
2022-11-05T00:08:47.085Z,70.88
2022-11-05T00:09:50.882Z,70.81
2022-11-05T00:10:52.722Z,70.70
2022-11-05T00:12:13.274Z,71.33
2022-11-05T00:13:34.151Z,70.87
2022-11-05T00:14:55.503Z,71.70
2022-11-05T00:16:15.889Z,71.59
2022-11-05T00:17:18.711Z,71.52
2022-11-05T00:18:20.645Z,71.28
2022-11-05T00:19:23.439Z,71.55
2022-11-05T00:20:26.220Z,71.33
2022-11-05T00:21:46.562Z,71.04
2022-11-05T00:23:06.981Z,71.06
2022-11-05T00:24:28.276Z,71.91
2022-11-05T00:25:31.087Z,71.45
2022-11-05T00:26:32.849Z,71.10
2022-11-05T00:27:35.995Z,70.91
2022-11-05T00:28:43.951Z,71.22
2022-11-05T00:29:47.390Z,71.03
2022-11-05T00:30:50.315Z,70.87
2022-11-05T00:31:52.152Z,70.88
2022-11-05T00:32:55.285Z,71.82
2022-11-05T00:33:57.070Z,71.10
2022-11-05T00:34:59.881Z,71.11
2022-11-05T00:36:04.042Z,71.80
2022-11-05T00:37:05.827Z,71.00
2022-11-05T00:38:08.568Z,71.40
2022-11-05T00:39:10.824Z,71.86
2022-11-05T00:40:15.553Z,71.09
2022-11-05T00:41:17.329Z,71.93
2022-11-05T00:42:39.853Z,71.02
2022-11-05T00:44:00.334Z,71.32
2022-11-05T00:45:05.196Z,71.45
2022-11-05T00:46:08.037Z,70.93
2022-11-05T00:47:33.500Z,71.12
2022-11-05T00:48:54.030Z,71.66
2022-11-05T00:49:55.968Z,71.33
2022-11-05T00:50:58.812Z,71.53
2022-11-05T00:52:15.480Z,71.18
2022-11-05T00:53:18.344Z,71.72
2022-11-05T00:54:20.451Z,71.12
2022-11-05T00:55:23.532Z,72.04
2022-11-05T00:56:26.540Z,71.61
2022-11-05T00:57:28.401Z,71.88
2022-11-05T00:58:31.388Z,71.35
2022-11-05T00:59:33.153Z,71.13
2022-11-05T01:00:39.162Z,71.98
2022-11-05T01:01:41.084Z,71.40
2022-11-05T01:02:44.047Z,71.85
2022-11-05T01:03:51.435Z,72.07
2022-11-05T01:04:53.785Z,71.31
2022-11-05T01:05:58.811Z,71.80
2022-11-05T01:07:00.623Z,71.16
2022-11-05T01:08:04.579Z,71.88
2022-11-05T01:09:06.370Z,71.31
2022-11-05T01:10:10.085Z,71.11
2022-11-05T01:11:32.850Z,71.07
2022-11-05T01:12:34.967Z,71.16
2022-11-05T01:13:38.823Z,71.16
2022-11-05T01:14:40.695Z,71.77
2022-11-05T01:15:45.776Z,71.31
2022-11-05T01:16:47.832Z,71.91
2022-11-05T01:17:52.485Z,71.85
2022-11-05T01:18:54.304Z,71.07
2022-11-05T01:19:57.108Z,71.61
2022-11-05T01:20:59.988Z,71.42
2022-11-05T01:22:01.784Z,71.48
2022-11-05T01:23:08.941Z,71.34
2022-11-05T01:24:13.843Z,72.17
2022-11-05T01:25:16.734Z,71.12
2022-11-05T01:26:18.558Z,71.28
2022-11-05T01:27:21.400Z,71.47
2022-11-05T01:28:24.319Z,71.76
2022-11-05T01:29:26.173Z,71.45
2022-11-05T01:30:29.100Z,71.73
2022-11-05T01:31:32.330Z,71.76
2022-11-05T01:32:36.342Z,71.76
2022-11-05T01:33:38.135Z,71.12
2022-11-05T01:34:40.983Z,71.96
2022-11-05T01:35:43.786Z,71.88
2022-11-05T01:36:45.864Z,72.03
2022-11-05T01:37:49.172Z,71.74
2022-11-05T01:38:50.974Z,71.67
2022-11-05T01:39:53.841Z,71.51
2022-11-05T01:40:55.635Z,71.36
2022-11-05T01:41:58.866Z,71.59
2022-11-05T01:43:00.797Z,72.23
2022-11-05T01:44:03.900Z,71.98
2022-11-05T01:45:13.889Z,71.60
2022-11-05T01:46:18.991Z,72.08
2022-11-05T01:47:30.019Z,71.53
2022-11-05T01:48:36.559Z,72.04
2022-11-05T01:49:38.511Z,71.24
2022-11-05T01:50:47.457Z,71.96
2022-11-05T01:51:51.288Z,71.59
2022-11-05T01:52:59.017Z,71.74
2022-11-05T01:54:03.598Z,72.20
2022-11-05T01:55:08.622Z,71.66
2022-11-05T01:56:15.973Z,71.53
2022-11-05T01:57:17.929Z,72.14
2022-11-05T01:58:26.137Z,72.10
2022-11-05T01:59:32.604Z,71.62
2022-11-05T02:00:37.204Z,71.25
2022-11-05T02:01:39.290Z,71.33
2022-11-05T02:02:44.611Z,72.10
2022-11-05T02:03:49.137Z,71.84
2022-11-05T02:04:58.542Z,71.59
2022-11-05T02:06:02.391Z,71.54
2022-11-05T02:07:07.540Z,71.90
2022-11-05T02:08:15.955Z,71.53
2022-11-05T02:09:22.451Z,71.94
2022-11-05T02:10:25.675Z,72.15
2022-11-05T02:11:28.001Z,71.55
2022-11-05T02:12:33.524Z,71.65
2022-11-05T02:13:36.308Z,72.33
2022-11-05T02:14:39.088Z,72.24
2022-11-05T02:15:51.948Z,71.74
2022-11-05T02:17:02.034Z,72.12
2022-11-05T02:18:17.689Z,71.93
2022-11-05T02:20:01.367Z,72.28
2022-11-05T02:21:27.957Z,71.80
2022-11-05T02:23:01.920Z,72.49
2022-11-05T02:24:21.365Z,71.96
2022-11-05T02:25:50.400Z,71.49
2022-11-05T02:27:04.478Z,71.92
2022-11-05T02:28:32.462Z,72.55
2022-11-05T02:30:06.697Z,71.85
2022-11-05T02:31:17.674Z,71.61
2022-11-05T02:32:32.006Z,71.65
2022-11-05T02:33:44.928Z,72.36
2022-11-05T02:34:55.757Z,72.50
2022-11-05T02:36:23.873Z,72.51
2022-11-05T02:37:37.993Z,72.12
2022-11-05T02:38:47.099Z,71.54
2022-11-05T02:39:58.432Z,71.83
2022-11-05T02:41:08.523Z,72.34
2022-11-05T02:42:16.791Z,72.40
2022-11-05T02:43:27.631Z,72.41
2022-11-05T02:44:38.706Z,72.27
2022-11-05T02:45:50.308Z,71.70
2022-11-05T02:46:58.497Z,72.34
2022-11-05T02:48:12.471Z,71.74
2022-11-05T02:49:23.837Z,72.65
2022-11-05T02:50:35.735Z,72.13
2022-11-05T02:51:46.922Z,71.85
2022-11-05T02:53:00.192Z,72.65
2022-11-05T02:54:09.180Z,71.72
2022-11-05T02:55:20.706Z,72.27
2022-11-05T02:56:25.747Z,72.20
2022-11-05T02:57:30.284Z,71.63
2022-11-05T02:58:33.840Z,72.65
2022-11-05T02:59:36.659Z,72.05
2022-11-05T03:00:48.365Z,71.87
2022-11-05T03:01:53.122Z,71.69
2022-11-05T03:02:56.477Z,72.49
2022-11-05T03:04:01.645Z,71.93
2022-11-05T03:05:04.720Z,72.10
2022-11-05T03:06:24.266Z,71.86
2022-11-05T03:07:38.176Z,72.21
2022-11-05T03:08:57.008Z,72.56
2022-11-05T03:10:31.861Z,72.42
2022-11-05T03:11:41.621Z,72.55
2022-11-05T03:12:53.231Z,71.86
2022-11-05T03:13:59.659Z,71.71
2022-11-05T03:15:15.382Z,72.70
2022-11-05T03:16:20.374Z,71.75
2022-11-05T03:17:32.364Z,72.40
2022-11-05T03:18:43.397Z,72.57
2022-11-05T03:19:49.932Z,72.27
2022-11-05T03:21:01.941Z,71.76
2022-11-05T03:22:09.927Z,72.00
2022-11-05T03:23:24.116Z,72.41
2022-11-05T03:24:30.363Z,71.83
2022-11-05T03:25:38.108Z,72.34
2022-11-05T03:26:44.355Z,71.83
2022-11-05T03:27:50.276Z,72.35
2022-11-05T03:29:00.155Z,71.74
2022-11-05T03:30:05.196Z,72.59
2022-11-05T03:31:09.056Z,71.78
2022-11-05T03:32:12.475Z,72.19
2022-11-05T03:33:21.892Z,72.88
2022-11-05T03:34:30.623Z,71.84
2022-11-05T03:35:38.167Z,72.16
2022-11-05T03:36:45.839Z,72.85
2022-11-05T03:37:51.185Z,72.67
2022-11-05T03:38:55.337Z,72.87
2022-11-05T03:40:00.509Z,72.28
2022-11-05T03:41:07.560Z,72.66
2022-11-05T03:42:15.297Z,72.02
2022-11-05T03:43:21.802Z,72.81
2022-11-05T03:44:29.586Z,72.02
2022-11-05T03:45:36.236Z,72.82
2022-11-05T03:46:44.259Z,73.00
2022-11-05T03:47:49.596Z,72.87
2022-11-05T03:48:55.683Z,72.04
2022-11-05T03:50:07.764Z,72.24
2022-11-05T03:51:17.647Z,72.15
2022-11-05T03:52:24.539Z,72.80
2022-11-05T03:53:31.033Z,72.57
2022-11-05T03:54:33.411Z,72.68
2022-11-05T03:55:40.150Z,72.58
2022-11-05T03:56:49.786Z,72.80
2022-11-05T03:57:55.128Z,72.39
2022-11-05T03:59:00.419Z,72.57
2022-11-05T04:00:06.126Z,72.23
2022-11-05T04:01:15.588Z,72.23
2022-11-05T04:02:20.382Z,72.68
2022-11-05T04:03:23.391Z,72.01
2022-11-05T04:04:25.413Z,72.99
2022-11-05T04:05:29.736Z,72.09
2022-11-05T04:06:50.082Z,73.08
2022-11-05T04:08:14.239Z,72.30
2022-11-05T04:09:35.083Z,73.10
2022-11-05T04:10:55.388Z,73.10
2022-11-05T04:12:15.810Z,72.65
2022-11-05T04:13:27.795Z,71.84
2022-11-05T04:14:31.194Z,72.16
2022-11-05T04:15:54.182Z,72.65
2022-11-05T04:17:09.426Z,72.90
2022-11-05T04:18:11.253Z,72.85
2022-11-05T04:19:13.082Z,72.45
2022-11-05T04:20:33.688Z,72.22
2022-11-05T04:21:55.316Z,73.12
2022-11-05T04:23:18.514Z,71.96
2022-11-05T04:24:21.313Z,72.64
2022-11-05T04:25:23.200Z,72.58
2022-11-05T04:26:26.015Z,72.27
2022-11-05T04:27:27.841Z,72.95
2022-11-05T04:28:50.590Z,73.12
2022-11-05T04:30:10.996Z,72.51
2022-11-05T04:31:12.753Z,73.06
2022-11-05T04:32:15.543Z,72.89
2022-11-05T04:33:17.606Z,72.48
2022-11-05T04:34:22.045Z,73.19
2022-11-05T04:35:24.773Z,72.03
2022-11-05T04:36:27.851Z,72.81
2022-11-05T04:37:31.108Z,73.14
2022-11-05T04:38:33.892Z,72.56
2022-11-05T04:39:35.659Z,73.15
2022-11-05T04:40:38.731Z,72.99
2022-11-05T04:41:40.510Z,73.02
2022-11-05T04:42:43.345Z,72.61
2022-11-05T04:43:45.114Z,72.85
2022-11-05T04:44:47.881Z,73.12
2022-11-05T04:45:49.707Z,73.10
2022-11-05T04:46:52.532Z,72.14
2022-11-05T04:47:54.834Z,72.44
2022-11-05T04:48:57.649Z,72.58
2022-11-05T04:49:59.934Z,73.20
2022-11-05T04:51:02.747Z,72.96
2022-11-05T04:52:04.739Z,72.53
2022-11-05T04:53:09.168Z,73.20
2022-11-05T04:54:11.205Z,73.15
2022-11-05T04:55:14.494Z,72.68
2022-11-05T04:56:19.628Z,73.27
2022-11-05T04:57:22.501Z,72.70
2022-11-05T04:58:24.385Z,72.80
2022-11-05T04:59:27.193Z,73.47
2022-11-05T05:00:29.186Z,73.18
2022-11-05T05:01:32.143Z,73.56
2022-11-05T05:02:34.306Z,73.65
2022-11-05T05:03:37.235Z,72.85
2022-11-05T05:04:39.008Z,73.77
2022-11-05T05:05:41.738Z,72.54
2022-11-05T05:06:43.596Z,72.94
2022-11-05T05:07:46.352Z,73.79
2022-11-05T05:08:51.198Z,73.57
2022-11-05T05:09:54.878Z,73.84
2022-11-05T05:11:00.418Z,73.21
2022-11-05T05:12:03.544Z,73.18
2022-11-05T05:13:05.347Z,73.42
2022-11-05T05:14:08.178Z,72.80
2022-11-05T05:15:09.972Z,73.44
2022-11-05T05:16:19.729Z,73.38
2022-11-05T05:17:21.796Z,73.25
2022-11-05T05:18:25.341Z,73.35
2022-11-05T05:19:28.502Z,73.00
2022-11-05T05:20:48.943Z,73.53
2022-11-05T05:21:50.722Z,72.99
2022-11-05T05:22:53.243Z,74.02
2022-11-05T05:23:57.463Z,73.94
2022-11-05T05:25:00.056Z,73.40
2022-11-05T05:26:02.847Z,73.05
2022-11-05T05:27:04.621Z,73.99
2022-11-05T05:28:07.350Z,73.43
2022-11-05T05:29:09.736Z,73.52
2022-11-05T05:30:13.085Z,74.25
2022-11-05T05:31:15.076Z,72.98
2022-11-05T05:32:17.879Z,74.16
2022-11-05T05:33:19.644Z,73.33
2022-11-05T05:34:22.439Z,73.58
2022-11-05T05:35:24.207Z,73.44
2022-11-05T05:36:27.085Z,73.96
2022-11-05T05:37:28.902Z,73.66
2022-11-05T05:38:31.712Z,72.99
2022-11-05T05:39:34.844Z,73.25
2022-11-05T05:40:37.628Z,73.10
2022-11-05T05:41:39.459Z,73.43
2022-11-05T05:42:43.560Z,73.94
2022-11-05T05:43:45.677Z,73.88
2022-11-05T05:44:48.469Z,73.68
2022-11-05T05:45:50.335Z,74.29
2022-11-05T05:46:54.857Z,73.81
2022-11-05T05:47:56.708Z,74.01
2022-11-05T05:48:59.631Z,73.45
2022-11-05T05:50:01.448Z,73.43
2022-11-05T05:51:05.229Z,73.87
2022-11-05T05:52:07.105Z,73.61
2022-11-05T05:53:10.358Z,73.21
2022-11-05T05:54:13.447Z,73.58
2022-11-05T05:55:16.899Z,73.49
2022-11-05T05:56:20.649Z,73.68
2022-11-05T05:57:22.550Z,73.83
2022-11-05T05:58:27.232Z,73.74
2022-11-05T05:59:29.012Z,73.89
2022-11-05T06:00:31.988Z,73.44
2022-11-05T06:01:34.158Z,73.15
2022-11-05T06:02:37.342Z,73.31
2022-11-05T06:03:39.403Z,73.07
2022-11-05T06:04:42.254Z,74.13
2022-11-05T06:05:44.065Z,73.84
2022-11-05T06:06:48.231Z,73.96
2022-11-05T06:07:55.959Z,73.65
2022-11-05T06:08:58.824Z,74.46
2022-11-05T06:10:00.615Z,73.59
2022-11-05T06:11:05.553Z,73.72
2022-11-05T06:12:07.777Z,73.58
2022-11-05T06:13:11.066Z,73.66
2022-11-05T06:14:13.938Z,74.19
2022-11-05T06:15:16.851Z,74.04
2022-11-05T06:16:19.455Z,73.41
2022-11-05T06:17:22.392Z,74.04
2022-11-05T06:18:24.476Z,73.76
2022-11-05T06:19:27.519Z,74.36
2022-11-05T06:20:29.393Z,73.90
2022-11-05T06:21:32.336Z,73.55
2022-11-05T06:22:34.409Z,73.88
2022-11-05T06:23:38.638Z,74.14
2022-11-05T06:24:40.535Z,73.33
2022-11-05T06:25:43.468Z,73.57
2022-11-05T06:26:46.711Z,74.07
2022-11-05T06:27:49.668Z,73.40
2022-11-05T06:28:51.469Z,73.48
2022-11-05T06:29:54.258Z,73.95
2022-11-05T06:30:56.444Z,74.00
2022-11-05T06:31:59.227Z,73.77
2022-11-05T06:33:05.008Z,73.40
2022-11-05T06:34:07.979Z,74.34
2022-11-05T06:35:09.866Z,74.01
2022-11-05T06:36:15.968Z,73.44
2022-11-05T06:37:17.807Z,74.28
2022-11-05T06:38:22.085Z,74.23
2022-11-05T06:39:24.878Z,74.07
2022-11-05T06:40:26.840Z,74.60
2022-11-05T06:41:29.667Z,73.87
2022-11-05T06:42:32.922Z,73.84
2022-11-05T06:43:35.882Z,74.37
2022-11-05T06:44:37.681Z,73.86
2022-11-05T06:45:40.493Z,73.61
2022-11-05T06:46:48.158Z,74.21
2022-11-05T06:47:56.033Z,74.54
2022-11-05T06:48:58.850Z,74.34
2022-11-05T06:50:00.611Z,74.36
2022-11-05T06:51:03.737Z,74.00
2022-11-05T06:52:05.637Z,74.52
2022-11-05T06:53:08.744Z,73.92
2022-11-05T06:54:11.166Z,74.06
2022-11-05T06:55:13.930Z,74.45
2022-11-05T06:56:15.787Z,74.26
2022-11-05T06:57:18.670Z,74.48
2022-11-05T06:58:22.113Z,74.78
2022-11-05T06:59:24.915Z,74.33
2022-11-05T07:00:26.784Z,74.36
2022-11-05T07:01:29.694Z,74.74
2022-11-05T07:02:31.642Z,73.82
2022-11-05T07:03:34.463Z,73.57
2022-11-05T07:04:36.279Z,73.68
2022-11-05T07:05:42.604Z,73.84
2022-11-05T07:06:44.404Z,74.08
2022-11-05T07:07:47.282Z,74.69
2022-11-05T07:08:49.232Z,74.56
2022-11-05T07:09:53.160Z,73.91
2022-11-05T07:10:55.946Z,74.75
2022-11-05T07:11:57.765Z,75.35
2022-11-05T07:13:07.841Z,74.82
2022-11-05T07:14:12.779Z,75.17
2022-11-05T07:15:14.632Z,75.48
2022-11-05T07:16:17.531Z,74.51
2022-11-05T07:17:19.494Z,75.16
2022-11-05T07:18:22.601Z,75.17
2022-11-05T07:19:25.425Z,75.51
2022-11-05T07:20:33.249Z,75.07
2022-11-05T07:21:37.006Z,75.40
2022-11-05T07:22:38.959Z,75.77
2022-11-05T07:23:41.895Z,74.70
2022-11-05T07:24:47.081Z,75.56
2022-11-05T07:25:49.941Z,75.33
2022-11-05T07:26:51.776Z,75.26
2022-11-05T07:27:54.571Z,75.83
2022-11-05T07:28:56.495Z,75.83
2022-11-05T07:30:00.668Z,74.98
2022-11-05T07:31:02.560Z,76.26
2022-11-05T07:32:05.999Z,75.39
2022-11-05T07:33:08.003Z,74.37
2022-11-05T07:34:10.920Z,75.00
2022-11-05T07:35:12.731Z,74.67
2022-11-05T07:36:15.699Z,76.01
2022-11-05T07:37:18.732Z,75.43
2022-11-05T07:38:21.492Z,75.61
2022-11-05T07:39:23.322Z,76.23
2022-11-05T07:40:28.694Z,75.49
2022-11-05T07:41:30.611Z,76.25
2022-11-05T07:42:35.621Z,75.13
2022-11-05T07:43:38.393Z,75.99
2022-11-05T07:44:40.422Z,74.83
2022-11-05T07:45:46.710Z,76.41
2022-11-05T07:46:49.072Z,76.47
2022-11-05T07:47:53.893Z,76.15
2022-11-05T07:48:55.699Z,76.42
2022-11-05T07:49:58.517Z,75.14
2022-11-05T07:51:01.289Z,75.33
2022-11-05T07:52:03.212Z,75.75
2022-11-05T07:53:07.671Z,75.57
2022-11-05T07:54:09.556Z,75.24
2022-11-05T07:55:13.737Z,76.07
2022-11-05T07:56:16.236Z,75.02
2022-11-05T07:57:19.022Z,76.53
2022-11-05T07:58:21.965Z,76.93
2022-11-05T07:59:23.743Z,76.29
2022-11-05T08:00:27.575Z,77.60
2022-11-05T08:01:30.869Z,75.92
2022-11-05T08:02:34.036Z,76.06
2022-11-05T08:03:36.233Z,76.11
2022-11-05T08:04:40.252Z,75.77
2022-11-05T08:05:44.621Z,76.36
2022-11-05T08:06:47.499Z,75.88
2022-11-05T08:07:49.603Z,76.26
2022-11-05T08:08:52.384Z,76.92
2022-11-05T08:09:54.173Z,76.28
2022-11-05T08:11:04.135Z,76.83
2022-11-05T08:12:06.945Z,76.71
2022-11-05T08:13:10.950Z,77.38
2022-11-05T08:14:14.325Z,77.78
2022-11-05T08:15:16.476Z,78.03
2022-11-05T08:16:19.384Z,77.77
2022-11-05T08:17:22.514Z,77.02
2022-11-05T08:18:31.168Z,76.56
2022-11-05T08:19:32.940Z,76.81
2022-11-05T08:20:36.376Z,76.81
2022-11-05T08:21:38.301Z,76.74
2022-11-05T08:22:43.762Z,77.12
2022-11-05T08:23:46.595Z,76.44
2022-11-05T08:24:48.607Z,75.70
2022-11-05T08:25:51.511Z,75.68
2022-11-05T08:26:53.837Z,76.85
2022-11-05T08:27:57.661Z,77.21
2022-11-05T08:29:00.350Z,76.11
2022-11-05T08:30:03.546Z,76.72
2022-11-05T08:31:05.625Z,76.88
2022-11-05T08:32:08.598Z,76.02
2022-11-05T08:33:14.212Z,76.32
2022-11-05T08:34:16.335Z,76.38
2022-11-05T08:35:20.277Z,77.32
2022-11-05T08:36:23.364Z,77.40
2022-11-05T08:37:25.190Z,75.94
2022-11-05T08:38:28.020Z,76.22
2022-11-05T08:39:30.945Z,75.88
2022-11-05T08:40:34.626Z,77.21
2022-11-05T08:41:37.503Z,81.68
2022-11-05T08:42:39.311Z,86.08
2022-11-05T08:43:42.203Z,84.43
2022-11-05T08:44:44.112Z,81.73
2022-11-05T08:45:47.246Z,79.31
2022-11-05T08:46:49.270Z,78.36
2022-11-05T08:47:52.158Z,77.61
2022-11-05T08:48:55.342Z,77.95
2022-11-05T08:49:58.406Z,77.79
2022-11-05T08:51:00.928Z,78.71
2022-11-05T08:52:03.787Z,77.97
2022-11-05T08:53:06.353Z,77.95
2022-11-05T08:54:09.414Z,78.02
2022-11-05T08:55:11.335Z,78.58
2022-11-05T08:56:14.448Z,77.70
2022-11-05T08:57:16.240Z,78.42
2022-11-05T08:58:20.975Z,78.26
2022-11-05T08:59:22.959Z,78.47
2022-11-05T09:00:26.234Z,78.09
2022-11-05T09:01:28.169Z,77.64
2022-11-05T09:02:31.194Z,78.14
2022-11-05T09:03:34.068Z,77.95
2022-11-05T09:04:37.284Z,79.03
2022-11-05T09:05:41.856Z,78.12
2022-11-05T09:06:44.935Z,78.79
2022-11-05T09:07:46.783Z,78.40
2022-11-05T09:08:49.798Z,79.10
2022-11-05T09:09:51.734Z,78.87
2022-11-05T09:10:54.612Z,79.40
2022-11-05T09:12:13.072Z,79.22
2022-11-05T09:13:35.934Z,80.01
2022-11-05T09:14:38.204Z,79.89
2022-11-05T09:15:47.337Z,80.20
2022-11-05T09:16:54.165Z,79.85
2022-11-05T09:17:56.992Z,79.30
2022-11-05T09:18:59.773Z,80.38
2022-11-05T09:20:04.434Z,79.78
2022-11-05T09:21:07.308Z,80.03
2022-11-05T09:22:12.636Z,79.39
2022-11-05T09:23:15.825Z,79.12
2022-11-05T09:24:17.741Z,78.61
2022-11-05T09:25:20.731Z,78.75
2022-11-05T09:26:23.574Z,79.23
2022-11-05T09:27:26.426Z,79.38
2022-11-05T09:28:30.264Z,79.45
2022-11-05T09:29:32.092Z,80.47
2022-11-05T09:30:34.980Z,79.66
2022-11-05T09:31:37.890Z,77.84
2022-11-05T09:32:40.239Z,78.24
2022-11-05T09:33:43.347Z,78.18
2022-11-05T09:34:48.500Z,78.07
2022-11-05T09:35:53.946Z,77.22
2022-11-05T09:36:57.422Z,77.06
2022-11-05T09:38:01.255Z,77.56
2022-11-05T09:39:05.460Z,78.85
2022-11-05T09:40:08.131Z,78.32
2022-11-05T09:41:19.903Z,78.21
2022-11-05T09:42:29.214Z,77.81
2022-11-05T09:43:37.331Z,77.97
2022-11-05T09:44:47.777Z,78.62
2022-11-05T09:45:55.571Z,78.37
2022-11-05T09:47:03.480Z,78.45
2022-11-05T09:48:11.741Z,78.43
2022-11-05T09:49:25.568Z,79.05
2022-11-05T09:50:33.187Z,78.90
2022-11-05T09:51:37.644Z,79.08
2022-11-05T09:52:39.502Z,78.97
2022-11-05T09:53:43.409Z,78.65
2022-11-05T09:54:46.057Z,78.56
2022-11-05T09:55:52.473Z,78.64
2022-11-05T09:56:55.892Z,79.00
2022-11-05T09:58:02.213Z,78.36
2022-11-05T09:59:13.752Z,79.36
2022-11-05T10:00:17.336Z,78.42
2022-11-05T10:01:24.763Z,78.71
2022-11-05T10:02:30.369Z,79.46
2022-11-05T10:03:36.049Z,79.35
2022-11-05T10:04:39.393Z,79.15
2022-11-05T10:05:42.671Z,78.80
2022-11-05T10:06:49.905Z,78.63
2022-11-05T10:07:56.764Z,79.21
2022-11-05T10:09:06.730Z,79.60
2022-11-05T10:10:20.500Z,80.24
2022-11-05T10:11:29.201Z,79.89
2022-11-05T10:12:37.420Z,79.88
2022-11-05T10:13:44.222Z,78.64
2022-11-05T10:14:52.221Z,78.02
2022-11-05T10:16:00.431Z,79.69
2022-11-05T10:17:11.144Z,79.56
2022-11-05T10:18:19.415Z,79.47
2022-11-05T10:19:26.534Z,79.50
2022-11-05T10:20:34.739Z,79.16
2022-11-05T10:22:05.129Z,79.48
2022-11-05T10:23:15.581Z,80.13
2022-11-05T10:24:19.494Z,79.68
2022-11-05T10:25:23.597Z,79.10
2022-11-05T10:26:27.870Z,80.17
2022-11-05T10:27:34.502Z,79.56
2022-11-05T10:28:37.762Z,79.64
2022-11-05T10:29:42.603Z,81.02
2022-11-05T10:30:47.301Z,81.75
2022-11-05T10:31:49.616Z,80.98
2022-11-05T10:32:56.358Z,82.55
2022-11-05T10:34:03.320Z,82.35
2022-11-05T10:35:08.643Z,81.47
2022-11-05T10:36:21.895Z,81.13
2022-11-05T10:37:24.745Z,80.98
2022-11-05T10:38:28.875Z,80.80
2022-11-05T10:39:33.659Z,81.21
2022-11-05T10:40:42.462Z,80.75
2022-11-05T10:41:56.798Z,80.93
2022-11-05T10:43:04.974Z,80.82
2022-11-05T10:44:23.999Z,80.48
2022-11-05T10:45:34.752Z,80.70
2022-11-05T10:46:41.228Z,80.38
2022-11-05T10:47:55.250Z,79.56
2022-11-05T10:49:18.587Z,79.58
2022-11-05T10:50:24.277Z,79.85
2022-11-05T10:51:27.450Z,79.78
2022-11-05T10:52:35.387Z,79.02
2022-11-05T10:53:40.808Z,79.32
2022-11-05T10:54:42.983Z,79.86
2022-11-05T10:55:48.338Z,79.78
2022-11-05T10:56:50.393Z,79.78
2022-11-05T10:57:53.511Z,79.98
2022-11-05T10:58:57.203Z,79.70
2022-11-05T11:00:19.669Z,79.41
2022-11-05T11:01:24.512Z,80.23
2022-11-05T11:02:26.969Z,79.28
2022-11-05T11:03:35.234Z,79.54
2022-11-05T11:04:38.253Z,78.85
2022-11-05T11:05:41.681Z,79.26
2022-11-05T11:06:51.288Z,78.77
2022-11-05T11:08:00.748Z,78.86
2022-11-05T11:09:09.482Z,79.65
2022-11-05T11:10:20.843Z,79.29
2022-11-05T11:11:30.050Z,79.28
2022-11-05T11:12:40.887Z,80.19
2022-11-05T11:13:52.231Z,80.11
2022-11-05T11:15:02.308Z,79.32
2022-11-05T11:16:15.065Z,79.40
2022-11-05T11:17:26.969Z,79.30
2022-11-05T11:18:35.977Z,79.71
2022-11-05T11:19:40.457Z,80.24
2022-11-05T11:20:45.042Z,79.56
2022-11-05T11:21:48.252Z,79.21
2022-11-05T11:23:02.331Z,78.94
2022-11-05T11:24:07.528Z,79.77
2022-11-05T11:25:23.949Z,79.31
2022-11-05T11:26:29.551Z,79.95
2022-11-05T11:27:34.406Z,79.56
2022-11-05T11:28:39.013Z,79.62
2022-11-05T11:29:48.046Z,79.16
2022-11-05T11:31:05.412Z,78.54
2022-11-05T11:32:14.078Z,78.99
2022-11-05T11:33:23.555Z,79.30
2022-11-05T11:34:30.040Z,78.98
2022-11-05T11:35:33.515Z,79.42
2022-11-05T11:36:41.360Z,78.98
2022-11-05T11:37:43.377Z,79.75
2022-11-05T11:38:47.179Z,79.14
2022-11-05T11:39:53.792Z,79.77
2022-11-05T11:41:02.763Z,79.77
2022-11-05T11:42:12.021Z,79.54
2022-11-05T11:43:23.649Z,79.21
2022-11-05T11:44:29.517Z,79.12
2022-11-05T11:45:35.115Z,79.73
2022-11-05T11:46:38.337Z,79.63
2022-11-05T11:47:43.914Z,79.54
2022-11-05T11:48:48.627Z,79.64
2022-11-05T11:49:52.079Z,79.83
2022-11-05T11:50:55.355Z,79.52
2022-11-05T11:52:01.676Z,78.73
2022-11-05T11:53:34.181Z,78.91
2022-11-05T11:54:37.002Z,79.43
2022-11-05T11:55:40.286Z,78.94
2022-11-05T11:56:45.689Z,79.64
2022-11-05T11:57:49.692Z,78.48
2022-11-05T11:58:53.972Z,78.55
2022-11-05T12:00:12.691Z,78.44
2022-11-05T12:01:49.764Z,78.46
2022-11-05T12:03:18.288Z,79.35
2022-11-05T12:04:29.392Z,78.28
2022-11-05T12:05:41.733Z,78.66
2022-11-05T12:06:48.084Z,79.01
2022-11-05T12:07:53.671Z,78.60
2022-11-05T12:09:07.181Z,78.55
2022-11-05T12:10:37.317Z,78.83
2022-11-05T12:11:46.887Z,78.66
2022-11-05T12:13:06.045Z,78.21
2022-11-05T12:14:19.715Z,78.81
2022-11-05T12:15:32.563Z,78.30
2022-11-05T12:17:17.272Z,78.43
2022-11-05T12:18:31.467Z,79.41
2022-11-05T12:19:52.277Z,79.20
2022-11-05T12:21:07.831Z,79.01
2022-11-05T12:22:21.311Z,78.94
2022-11-05T12:23:36.761Z,79.15
2022-11-05T12:25:00.589Z,79.17
2022-11-05T12:26:11.747Z,78.49
2022-11-05T12:27:26.302Z,79.34
2022-11-05T12:29:16.484Z,82.27
2022-11-05T12:30:15.474Z,83.22
2022-11-05T12:31:26.767Z,81.95
2022-11-05T12:32:50.370Z,80.01
2022-11-05T12:34:04.273Z,78.63
2022-11-05T12:35:18.541Z,77.98
2022-11-05T12:36:34.281Z,78.23
2022-11-05T12:37:46.658Z,78.02
2022-11-05T12:39:14.645Z,76.83
2022-11-05T12:40:38.137Z,78.26
2022-11-05T12:41:52.537Z,76.80
2022-11-05T12:43:11.384Z,77.92
2022-11-05T12:44:36.519Z,77.17
2022-11-05T12:45:46.284Z,78.05
2022-11-05T12:47:03.422Z,77.85
2022-11-05T12:48:26.520Z,77.94
2022-11-05T12:49:57.561Z,77.57
2022-11-05T12:51:10.585Z,77.51
2022-11-05T12:52:31.149Z,77.93
2022-11-05T12:53:45.725Z,77.78
2022-11-05T12:55:03.157Z,77.67
2022-11-05T12:56:13.824Z,77.45
2022-11-05T12:57:18.687Z,76.09
2022-11-05T12:58:27.885Z,76.54
2022-11-05T12:59:37.497Z,77.08
2022-11-05T13:00:44.099Z,77.20
2022-11-05T13:01:51.679Z,76.56
2022-11-05T13:03:02.374Z,76.77
2022-11-05T13:04:14.506Z,77.34
2022-11-05T13:05:21.784Z,76.73
2022-11-05T13:06:31.210Z,77.30
2022-11-05T13:07:39.088Z,77.60
2022-11-05T13:08:46.132Z,77.75
2022-11-05T13:09:54.370Z,77.79
2022-11-05T13:11:01.900Z,77.34
2022-11-05T13:12:07.951Z,77.49
2022-11-05T13:13:17.305Z,76.89
2022-11-05T13:14:26.595Z,76.45
2022-11-05T13:15:34.555Z,76.44
2022-11-05T13:16:38.820Z,76.78
2022-11-05T13:17:49.577Z,77.06
2022-11-05T13:18:55.913Z,77.63
2022-11-05T13:20:04.104Z,76.52
2022-11-05T13:21:08.512Z,77.50
2022-11-05T13:22:20.282Z,77.87
2022-11-05T13:23:32.129Z,77.38
2022-11-05T13:24:40.078Z,77.13
2022-11-05T13:25:48.935Z,77.34
2022-11-05T13:26:54.507Z,77.60
2022-11-05T13:28:03.896Z,76.66
2022-11-05T13:29:12.549Z,77.44
2022-11-05T13:30:20.628Z,76.77
2022-11-05T13:31:31.319Z,76.67
2022-11-05T13:32:42.923Z,76.87
2022-11-05T13:33:48.774Z,77.53
2022-11-05T13:34:51.533Z,77.57
2022-11-05T13:36:12.022Z,76.37
2022-11-05T13:37:38.655Z,76.22
2022-11-05T13:39:00.964Z,77.11
2022-11-05T13:40:09.564Z,76.73
2022-11-05T13:41:28.534Z,76.46
2022-11-05T13:42:53.746Z,76.56
2022-11-05T13:44:11.349Z,76.82
2022-11-05T13:45:51.312Z,77.50
2022-11-05T13:47:13.023Z,77.43
2022-11-05T13:48:44.602Z,76.20
2022-11-05T13:50:03.198Z,76.27
2022-11-05T13:51:27.266Z,76.39
2022-11-05T13:52:46.266Z,76.08
2022-11-05T13:54:08.154Z,77.20
2022-11-05T13:55:51.617Z,77.39
2022-11-05T13:57:13.909Z,77.01
2022-11-05T13:58:46.470Z,76.93
2022-11-05T14:00:02.141Z,76.23
2022-11-05T14:01:18.383Z,76.26
2022-11-05T14:02:24.421Z,77.28
2022-11-05T14:03:27.861Z,76.90
2022-11-05T14:04:33.569Z,75.74
2022-11-05T14:05:39.892Z,77.10
2022-11-05T14:06:42.182Z,76.41
2022-11-05T14:07:47.594Z,79.67
2022-11-05T14:08:50.743Z,85.08
2022-11-05T14:09:55.591Z,84.98
2022-11-05T14:11:01.702Z,83.24
2022-11-05T14:12:06.849Z,81.53
2022-11-05T14:13:21.540Z,79.07
2022-11-05T14:14:27.103Z,78.36
2022-11-05T14:15:32.414Z,77.89
2022-11-05T14:16:49.751Z,77.94
2022-11-05T14:17:58.433Z,77.09
2022-11-05T14:19:29.458Z,76.71
2022-11-05T14:20:47.560Z,76.88
2022-11-05T14:21:51.104Z,77.93
2022-11-05T14:22:54.416Z,77.06
2022-11-05T14:23:57.715Z,77.81
2022-11-05T14:25:01.051Z,76.95
2022-11-05T14:26:14.800Z,76.81
2022-11-05T14:27:44.488Z,76.85